createdAt,value
2017-07-20T00:07:43.000Z,24.2
2017-07-20T00:17:43.000Z,23.8
2017-07-20T00:27:43.000Z,23.8
2017-07-20T00:37:43.000Z,24.5
2017-07-20T00:47:43.000Z,23.9
2017-07-20T00:57:43.000Z,23.9
2017-07-20T01:07:43.000Z,24.3
2017-07-20T01:17:43.000Z,24.5
2017-07-20T01:27:43.000Z,23.9
2017-07-20T01:37:43.000Z,24
2017-07-20T01:47:43.000Z,23.8
2017-07-20T01:57:43.000Z,24.2
2017-07-20T02:07:43.000Z,23.7
2017-07-20T02:17:43.000Z,23.7
2017-07-20T02:27:43.000Z,23.7
2017-07-20T02:37:43.000Z,23.7
2017-07-20T02:47:43.000Z,23.3
2017-07-20T02:57:43.000Z,24
2017-07-20T03:07:43.000Z,23.6
2017-07-20T03:17:43.000Z,23.6
2017-07-20T03:27:43.000Z,24
2017-07-20T03:37:43.000Z,24
2017-07-20T03:47:43.000Z,23.9
2017-07-20T03:57:43.000Z,23.5
2017-07-20T04:07:43.000Z,23.8
2017-07-20T04:17:43.000Z,23.5
2017-07-20T04:27:43.000Z,23.5
2017-07-20T04:37:43.000Z,23.5
2017-07-20T04:47:43.000Z,23.8
2017-07-20T04:57:43.000Z,23.5
2017-07-20T05:07:43.000Z,24.1
2017-07-20T05:17:43.000Z,23.6
2017-07-20T05:27:43.000Z,23.9
2017-07-20T05:37:44.000Z,23.6
2017-07-20T05:47:44.000Z,23.9
2017-07-20T05:57:44.000Z,23.3
2017-07-20T06:07:44.000Z,23.8
2017-07-20T06:17:44.000Z,23.5
2017-07-20T06:27:44.000Z,23.5
2017-07-20T06:37:44.000Z,23.5
2017-07-20T06:47:44.000Z,23.5
2017-07-20T06:57:44.000Z,23.4
2017-07-20T07:07:44.000Z,23.8
2017-07-20T07:17:44.000Z,23.4
2017-07-20T07:27:44.000Z,23
2017-07-20T07:37:44.000Z,24
2017-07-20T07:47:44.000Z,24
2017-07-20T07:57:44.000Z,24.2
2017-07-20T08:07:44.000Z,24.2
2017-07-20T08:17:44.000Z,24.5
2017-07-20T08:27:44.000Z,24.1
2017-07-20T08:37:44.000Z,24.1
2017-07-20T08:47:44.000Z,24.1
2017-07-20T08:57:44.000Z,24.7
2017-07-20T09:07:44.000Z,24.8
2017-07-20T09:17:44.000Z,24.3
2017-07-20T09:27:45.000Z,24.8
2017-07-20T09:37:45.000Z,24.5
2017-07-20T09:47:44.000Z,24.2
2017-07-20T09:57:44.000Z,24.2
2017-07-20T10:07:44.000Z,24.3
2017-07-20T10:17:44.000Z,24.3
2017-07-20T10:27:44.000Z,24.3
2017-07-20T10:37:44.000Z,24.4
2017-07-20T10:47:44.000Z,24.4
2017-07-20T10:57:44.000Z,24.8
2017-07-20T11:07:44.000Z,24.5
2017-07-20T11:17:44.000Z,24.5
2017-07-20T11:27:46.000Z,24.6
2017-07-20T11:37:44.000Z,24.6
2017-07-20T11:47:44.000Z,24.6
2017-07-20T11:57:45.000Z,24.6
2017-07-20T12:07:45.000Z,24.8
2017-07-20T12:17:44.000Z,24.7
2017-07-20T12:27:44.000Z,24.3
2017-07-20T12:37:45.000Z,24.8
2017-07-20T12:47:45.000Z,24.8
2017-07-20T12:57:45.000Z,24.3
2017-07-20T13:07:45.000Z,24.7
2017-07-20T13:17:45.000Z,24.8
2017-07-20T13:27:45.000Z,24.8
2017-07-20T13:37:45.000Z,24.8
2017-07-20T13:47:46.000Z,24.3
2017-07-20T13:57:45.000Z,24.8
2017-07-20T14:07:45.000Z,24.9
2017-07-20T14:17:45.000Z,24.9
2017-07-20T14:27:45.000Z,24.9
2017-07-20T14:37:45.000Z,24.8
2017-07-20T14:47:45.000Z,24.9
2017-07-20T14:57:45.000Z,25.1
2017-07-20T15:07:45.000Z,25.2
2017-07-20T15:17:45.000Z,24.4
2017-07-20T15:27:45.000Z,24.8
2017-07-20T15:37:45.000Z,24.9
2017-07-20T15:47:45.000Z,24.9
2017-07-20T15:57:45.000Z,25
2017-07-20T16:07:45.000Z,24.5
2017-07-20T16:17:45.000Z,25
2017-07-20T16:37:46.000Z,24.8
2017-07-20T16:47:46.000Z,24.9
2017-07-20T16:57:45.000Z,24.8
2017-07-20T17:07:45.000Z,25
2017-07-20T17:17:45.000Z,25.4
2017-07-20T17:37:45.000Z,24.9
2017-07-20T17:47:45.000Z,24.4
2017-07-20T17:57:46.000Z,25.2
2017-07-20T18:07:45.000Z,24.3
2017-07-20T18:17:45.000Z,24.8
2017-07-20T18:27:45.000Z,24.8
2017-07-20T18:47:45.000Z,24.8
2017-07-20T18:57:45.000Z,24.8
2017-07-20T19:07:46.000Z,24.8
2017-07-20T19:17:45.000Z,24.8
2017-07-20T19:27:46.000Z,24.8
2017-07-20T19:37:46.000Z,24.8
2017-07-20T19:47:46.000Z,24.8
2017-07-20T19:57:46.000Z,24.8
2017-07-20T20:07:46.000Z,24.7
2017-07-20T20:17:46.000Z,24.7
2017-07-20T20:27:48.000Z,24.7
2017-07-20T20:37:46.000Z,25.1
2017-07-20T20:47:46.000Z,24.6
2017-07-20T20:57:46.000Z,24.7
2017-07-20T21:17:47.000Z,24.3
2017-07-20T21:37:46.000Z,24.6
2017-07-20T21:47:46.000Z,24.1
2017-07-20T21:57:46.000Z,24.7
2017-07-20T22:07:46.000Z,24.5
2017-07-20T22:17:46.000Z,24.5
2017-07-20T22:27:46.000Z,24.4
2017-07-20T22:37:46.000Z,24.4
2017-07-20T22:47:46.000Z,23.9
2017-07-20T22:57:46.000Z,24.4
2017-07-20T23:07:46.000Z,24.4
2017-07-20T23:17:46.000Z,24.4
2017-07-20T23:27:46.000Z,24.7
2017-07-20T23:37:46.000Z,24.2
2017-07-20T23:47:50.000Z,24.2
2017-07-20T23:57:46.000Z,24.2
